createdAt,value
2022-10-18T06:07:53.362Z,101631.78
2022-10-18T06:10:21.346Z,101658.03
2022-10-18T06:12:49.293Z,101623.81
2022-10-18T06:15:17.689Z,101646.00
2022-10-18T06:17:45.645Z,101661.19
2022-10-18T06:20:13.488Z,101647.94
2022-10-18T06:22:41.379Z,101632.75
2022-10-18T06:25:11.330Z,101676.56
2022-10-18T06:27:39.544Z,101647.69
2022-10-18T06:30:08.849Z,101647.94
2022-10-18T06:32:36.747Z,101662.38
2022-10-18T06:35:05.318Z,101660.28
2022-10-18T06:37:35.608Z,101657.00
2022-10-18T06:40:07.302Z,101680.97
2022-10-18T06:42:36.553Z,101683.66
2022-10-18T06:45:05.471Z,101666.91
2022-10-18T06:47:33.356Z,101697.03
2022-10-18T06:50:01.215Z,101692.28
2022-10-18T06:52:29.468Z,101700.06
2022-10-18T06:54:57.495Z,101690.69
2022-10-18T06:57:25.437Z,101666.53
2022-10-18T06:59:54.958Z,101672.47
2022-10-18T07:02:24.932Z,101695.38
2022-10-18T07:04:52.749Z,101701.41
2022-10-18T07:07:21.398Z,101680.31
2022-10-18T07:09:49.181Z,101706.72
2022-10-18T07:12:17.997Z,101710.28
2022-10-18T07:14:47.307Z,101705.22
2022-10-18T07:17:16.972Z,101717.03
2022-10-18T07:19:44.973Z,101708.47
2022-10-18T07:22:12.939Z,101706.69
2022-10-18T07:24:41.017Z,101730.88
2022-10-18T07:27:08.927Z,101728.41
2022-10-18T07:29:39.503Z,101731.72
2022-10-18T07:32:07.842Z,101706.53
2022-10-18T07:34:37.259Z,101741.38
2022-10-18T07:37:05.231Z,101738.09
2022-10-18T07:39:33.243Z,101746.94
2022-10-18T07:42:02.286Z,101744.25
2022-10-18T07:44:30.413Z,101738.16
2022-10-18T07:46:58.326Z,101748.44
2022-10-18T07:49:26.455Z,101757.50
2022-10-18T07:51:55.683Z,101739.50
2022-10-18T07:54:23.759Z,101753.25
2022-10-18T07:56:51.568Z,101740.97
2022-10-18T07:59:19.593Z,101759.50
2022-10-18T08:01:47.541Z,101776.34
2022-10-18T08:04:16.499Z,101750.91
2022-10-18T08:06:44.649Z,101774.47
2022-10-18T08:09:13.924Z,101765.19
2022-10-18T08:11:44.911Z,101778.00
2022-10-18T08:14:12.842Z,101775.84
2022-10-18T08:16:40.699Z,101763.84
2022-10-18T08:19:08.765Z,101740.78
2022-10-18T08:21:36.745Z,101748.88
2022-10-18T08:24:07.317Z,101780.84
2022-10-18T08:26:36.644Z,101796.63
2022-10-18T08:29:21.173Z,101787.03
2022-10-18T08:31:51.446Z,101754.56
2022-10-18T08:37:04.945Z,101756.47
2022-10-18T08:39:35.576Z,101769.94
2022-10-18T08:42:35.807Z,101784.44
2022-10-18T08:45:12.695Z,101795.78
2022-10-18T08:47:49.342Z,101755.34
2022-10-18T08:50:21.076Z,101785.41
2022-10-18T08:52:53.953Z,101763.69
2022-10-18T08:55:26.390Z,101789.41
2022-10-18T08:57:56.478Z,101773.50
2022-10-18T09:00:26.679Z,101767.56
2022-10-18T09:03:08.903Z,101784.03
2022-10-18T09:05:46.708Z,101789.28
2022-10-18T09:08:31.440Z,101790.34
2022-10-18T09:11:11.186Z,101803.88
2022-10-18T09:14:00.922Z,101790.00
2022-10-18T09:16:35.904Z,101826.91
2022-10-18T09:19:13.116Z,101792.34
2022-10-18T09:21:51.195Z,101796.56
2022-10-18T09:24:26.872Z,101797.13
2022-10-18T09:26:59.288Z,101820.84
2022-10-18T09:29:44.475Z,101809.63
2022-10-18T09:32:25.566Z,101811.16
2022-10-18T09:34:58.203Z,101820.50
2022-10-18T09:37:29.290Z,101805.56
2022-10-18T09:40:05.188Z,101804.03
2022-10-18T09:42:37.223Z,101839.34
2022-10-18T09:45:21.753Z,101834.66
2022-10-18T09:47:58.591Z,101834.06
2022-10-18T09:50:31.376Z,101832.78
2022-10-18T09:53:09.291Z,101826.03
2022-10-18T09:55:43.882Z,101832.34
2022-10-18T09:58:14.941Z,101855.56
2022-10-18T10:00:49.977Z,101811.16
2022-10-18T10:03:18.088Z,101807.78
2022-10-18T10:05:46.333Z,101833.50
2022-10-18T10:08:14.487Z,101837.00
2022-10-18T10:10:48.365Z,101846.09
2022-10-18T10:13:23.229Z,101833.13
2022-10-18T10:15:56.429Z,101829.16
2022-10-18T10:18:27.326Z,101845.06
2022-10-18T10:20:57.683Z,101850.78
2022-10-18T10:23:29.842Z,101826.47
2022-10-18T10:26:00.935Z,101836.97
2022-10-18T10:28:32.388Z,101856.16
2022-10-18T10:31:18.988Z,101860.44
2022-10-18T10:33:48.572Z,101857.06
2022-10-18T10:36:21.737Z,101859.41
2022-10-18T10:39:04.743Z,101862.31
2022-10-18T10:44:04.168Z,101856.34
2022-10-18T10:46:38.215Z,101856.81
2022-10-18T10:49:38.529Z,101863.00
2022-10-18T10:52:08.449Z,101845.59
2022-10-18T10:54:52.098Z,101865.81
2022-10-18T10:57:25.198Z,101850.16
2022-10-18T10:59:55.114Z,101853.41
2022-10-18T11:02:32.173Z,101832.59
2022-10-18T11:05:22.344Z,101874.09
2022-10-18T11:07:54.256Z,101863.66
2022-10-18T11:10:25.946Z,101873.56
2022-10-18T11:13:02.459Z,101836.78
2022-10-18T11:15:36.628Z,101863.53
2022-10-18T11:18:14.497Z,101871.34
2022-10-18T11:20:46.686Z,101853.38
2022-10-18T11:23:17.017Z,101849.22
2022-10-18T11:26:05.721Z,101845.50
2022-10-18T11:28:54.249Z,101841.03
2022-10-18T11:31:28.882Z,101844.44
2022-10-18T11:34:16.343Z,101852.47
2022-10-18T11:37:09.723Z,101847.50
2022-10-18T11:39:56.032Z,101834.34
2022-10-18T11:42:37.798Z,101839.59
2022-10-18T11:45:15.774Z,101826.50
2022-10-18T11:47:53.697Z,101849.22
2022-10-18T11:50:34.076Z,101845.72
2022-10-18T11:53:13.283Z,101848.03
2022-10-18T11:55:52.094Z,101825.59
2022-10-18T11:58:35.151Z,101826.56
2022-10-18T12:01:13.917Z,101825.84
2022-10-18T12:03:54.996Z,101821.03
2022-10-18T12:06:29.373Z,101826.34
2022-10-18T12:09:00.878Z,101810.41
2022-10-18T12:11:33.098Z,101817.44
2022-10-18T12:14:03.875Z,101799.00
2022-10-18T12:16:51.451Z,101794.84
2022-10-18T12:19:26.791Z,101775.88
2022-10-18T12:21:59.135Z,101801.88
2022-10-18T12:24:33.212Z,101800.47
2022-10-18T12:27:03.576Z,101791.50
2022-10-18T12:29:38.839Z,101794.50
2022-10-18T12:32:14.779Z,101766.06
2022-10-18T12:34:46.527Z,101797.28
2022-10-18T12:37:32.711Z,101770.13
2022-10-18T12:40:16.796Z,101769.13
2022-10-18T12:42:48.167Z,101793.66
2022-10-18T12:45:26.703Z,101801.81
2022-10-18T12:47:55.880Z,101802.75
2022-10-18T12:50:34.006Z,101800.13
2022-10-18T12:53:08.045Z,101798.50
2022-10-18T12:55:38.432Z,101798.91
2022-10-18T12:58:27.373Z,101799.50
2022-10-18T13:01:01.798Z,101789.59
2022-10-18T13:03:41.571Z,101750.50
2022-10-18T13:06:09.925Z,101766.69
2022-10-18T13:08:42.807Z,101789.69
2022-10-18T13:11:30.348Z,101791.47
2022-10-18T13:15:00.555Z,101784.59
2022-10-18T13:17:47.581Z,101782.00
2022-10-18T13:20:27.719Z,101779.56
2022-10-18T13:23:07.116Z,101747.25
2022-10-18T13:25:51.607Z,101761.06
2022-10-18T13:28:30.275Z,101766.16
2022-10-18T13:31:05.243Z,101764.38
2022-10-18T13:33:35.771Z,101753.75
2022-10-18T13:36:06.758Z,101769.13
2022-10-18T13:38:40.738Z,101780.63
2022-10-18T13:41:13.081Z,101747.63
2022-10-18T13:44:11.480Z,101785.75
2022-10-18T13:47:20.907Z,101783.56
2022-10-18T13:53:22.955Z,101789.84
2022-10-18T13:56:25.340Z,101788.53
2022-10-18T13:59:16.752Z,101793.19
2022-10-18T14:01:56.815Z,101785.94
2022-10-18T14:04:40.207Z,101788.50
2022-10-18T14:07:10.202Z,101788.25
2022-10-18T14:09:49.789Z,101792.81
2022-10-18T14:12:29.965Z,101762.25
2022-10-18T14:15:07.029Z,101787.56
2022-10-18T14:17:41.150Z,101777.13
2022-10-18T14:20:20.849Z,101767.47
2022-10-18T14:22:52.567Z,101746.00
2022-10-18T14:25:23.537Z,101750.84
2022-10-18T14:28:11.380Z,101784.94
2022-10-18T14:30:53.813Z,101767.97
2022-10-18T14:33:29.784Z,101787.88
2022-10-18T14:36:03.740Z,101783.88
2022-10-18T14:38:32.073Z,101786.91
2022-10-18T14:41:08.527Z,101770.00
2022-10-18T14:43:37.851Z,101791.78
2022-10-18T14:46:19.731Z,101787.22
2022-10-18T14:48:55.597Z,101774.72
2022-10-18T14:51:24.742Z,101780.19
2022-10-18T14:53:53.900Z,101753.91
2022-10-18T14:56:26.750Z,101756.00
2022-10-18T14:58:58.183Z,101742.34
2022-10-18T15:01:29.448Z,101781.75
2022-10-18T15:03:59.744Z,101759.13
2022-10-18T15:06:28.089Z,101759.78
2022-10-18T15:08:59.424Z,101776.91
2022-10-18T15:11:28.330Z,101756.09
2022-10-18T15:14:00.479Z,101761.56
2022-10-18T15:16:31.256Z,101738.41
2022-10-18T15:19:08.735Z,101784.19
2022-10-18T15:21:37.831Z,101767.81
2022-10-18T15:24:29.109Z,101775.06
2022-10-18T15:27:00.996Z,101736.69
2022-10-18T15:29:35.213Z,101779.31
2022-10-18T15:32:14.219Z,101768.28
2022-10-18T15:34:42.303Z,101763.38
2022-10-18T15:37:30.501Z,101772.13
2022-10-18T15:40:17.816Z,101780.69
2022-10-18T15:42:46.489Z,101762.81
2022-10-18T15:45:32.717Z,101769.91
2022-10-18T15:48:18.653Z,101771.53
2022-10-18T15:50:48.573Z,101761.19
2022-10-18T15:53:33.456Z,101756.06
2022-10-18T15:56:04.116Z,101750.25
2022-10-18T15:58:40.883Z,101765.16
2022-10-18T16:01:17.619Z,101783.28
2022-10-18T16:03:47.709Z,101748.53
2022-10-18T16:06:18.310Z,101780.50
2022-10-18T16:08:48.980Z,101766.31
2022-10-18T16:11:18.962Z,101768.09
2022-10-18T16:13:46.948Z,101783.81
2022-10-18T16:16:19.429Z,101789.94
2022-10-18T16:18:47.349Z,101785.28
2022-10-18T16:21:19.782Z,101789.28
2022-10-18T16:23:47.991Z,101742.69
2022-10-18T16:26:16.945Z,101792.31
2022-10-18T16:28:45.819Z,101779.25
2022-10-18T16:31:19.325Z,101789.50
2022-10-18T16:33:48.271Z,101791.28
2022-10-18T16:36:17.667Z,101780.59
2022-10-18T16:38:46.490Z,101788.66
2022-10-18T16:41:16.057Z,101784.69
2022-10-18T16:43:44.912Z,101795.56
2022-10-18T16:46:17.922Z,101800.84
2022-10-18T16:48:48.761Z,101776.09
2022-10-18T16:51:16.742Z,101767.59
2022-10-18T16:53:45.102Z,101779.63
2022-10-18T16:56:17.497Z,101770.41
2022-10-18T16:58:47.782Z,101806.72
2022-10-18T17:01:19.207Z,101789.69
2022-10-18T17:03:51.415Z,101805.34
2022-10-18T17:06:21.355Z,101801.34
2022-10-18T17:08:49.622Z,101821.09
2022-10-18T17:11:21.598Z,101809.16
2022-10-18T17:13:49.583Z,101807.06
2022-10-18T17:16:25.833Z,101807.41
2022-10-18T17:18:57.606Z,101814.88
2022-10-18T17:21:28.893Z,101817.19
2022-10-18T17:24:00.616Z,101821.41
2022-10-18T17:26:32.503Z,101816.13
2022-10-18T17:29:03.219Z,101815.44
2022-10-18T17:31:33.693Z,101810.25
2022-10-18T17:34:10.816Z,101806.19
2022-10-18T17:36:39.381Z,101819.72
2022-10-18T17:39:07.486Z,101836.66
2022-10-18T17:41:37.236Z,101841.09
2022-10-18T17:44:06.046Z,101826.09
2022-10-18T17:46:35.738Z,101836.28
2022-10-18T17:49:08.218Z,101817.06
2022-10-18T17:51:41.270Z,101802.88
2022-10-18T17:54:09.610Z,101806.25
2022-10-18T17:56:37.681Z,101792.13
2022-10-18T17:59:05.957Z,101800.41
2022-10-18T18:01:34.459Z,101829.38
2022-10-18T18:04:04.690Z,101794.38
2022-10-18T18:06:39.258Z,101817.16
2022-10-18T18:09:09.241Z,101836.53
2022-10-18T18:11:38.732Z,101835.66
2022-10-18T18:14:09.141Z,101842.06
2022-10-18T18:16:42.569Z,101860.97
2022-10-18T18:19:12.634Z,101836.19
2022-10-18T18:21:41.727Z,101819.03
2022-10-18T18:24:10.922Z,101848.75
2022-10-18T18:26:39.888Z,101840.19
2022-10-18T18:29:08.705Z,101848.47
2022-10-18T18:31:39.899Z,101853.22
2022-10-18T18:34:14.752Z,101863.88
2022-10-18T18:36:44.107Z,101846.50
2022-10-18T18:39:19.904Z,101843.25
2022-10-18T18:41:50.015Z,101822.78
2022-10-18T18:44:19.384Z,101856.63
2022-10-18T18:46:48.039Z,101849.88
2022-10-18T18:49:18.742Z,101866.16
2022-10-18T18:51:47.234Z,101843.25
2022-10-18T18:54:17.334Z,101838.56
2022-10-18T18:56:53.071Z,101816.22
2022-10-18T18:59:21.569Z,101826.94
2022-10-18T19:01:49.745Z,101807.91
2022-10-18T19:04:26.493Z,101811.19
2022-10-18T19:06:54.599Z,101843.84
2022-10-18T19:09:27.029Z,101817.78
2022-10-18T19:11:58.110Z,101805.94
2022-10-18T19:14:27.125Z,101816.88
2022-10-18T19:16:57.636Z,101831.41
2022-10-18T19:19:32.378Z,101804.22
2022-10-18T19:22:03.766Z,101822.22
2022-10-18T19:24:39.377Z,101808.94
2022-10-18T19:27:09.846Z,101824.28
2022-10-18T19:29:40.401Z,101820.28
2022-10-18T19:32:12.287Z,101821.25
2022-10-18T19:34:43.976Z,101819.41
2022-10-18T19:37:13.798Z,101793.41
2022-10-18T19:39:42.269Z,101802.00
2022-10-18T19:42:15.722Z,101798.75
2022-10-18T19:44:47.228Z,101798.56
2022-10-18T19:47:16.105Z,101825.88
2022-10-18T19:49:48.813Z,101834.88
2022-10-18T19:52:17.016Z,101796.97
2022-10-18T19:54:47.119Z,101818.94
2022-10-18T19:57:15.683Z,101813.19
2022-10-18T19:59:43.854Z,101813.84
2022-10-18T20:02:14.734Z,101817.13
2022-10-18T20:04:42.774Z,101825.38
2022-10-18T20:07:12.720Z,101816.22
2022-10-18T20:09:40.864Z,101818.25
2022-10-18T20:12:12.274Z,101806.78
2022-10-18T20:14:42.309Z,101839.03
2022-10-18T20:17:13.831Z,101815.25
2022-10-18T20:19:42.298Z,101824.09
2022-10-18T20:22:11.729Z,101849.28
2022-10-18T20:24:41.833Z,101802.16
2022-10-18T20:27:11.486Z,101832.75
2022-10-18T20:29:39.552Z,101806.28
2022-10-18T20:32:11.653Z,101846.94
2022-10-18T20:34:42.655Z,101838.50
2022-10-18T20:37:12.185Z,101831.97
2022-10-18T20:39:40.910Z,101835.69
2022-10-18T20:42:09.560Z,101841.03
2022-10-18T20:44:41.044Z,101848.03
2022-10-18T20:47:09.786Z,101841.06
2022-10-18T20:49:37.824Z,101840.47
2022-10-18T20:52:06.207Z,101831.22
2022-10-18T20:54:35.828Z,101828.59
2022-10-18T20:57:06.930Z,101843.78
2022-10-18T20:59:35.840Z,101825.50
2022-10-18T21:02:03.833Z,101845.63
2022-10-18T21:04:32.305Z,101856.31
2022-10-18T21:07:01.149Z,101862.69
2022-10-18T21:09:32.031Z,101843.16
2022-10-18T21:12:03.828Z,101853.03
2022-10-18T21:14:32.175Z,101836.19
2022-10-18T21:17:01.691Z,101858.78
2022-10-18T21:19:32.437Z,101846.47
2022-10-18T21:22:03.729Z,101848.94
2022-10-18T21:24:34.763Z,101822.03
2022-10-18T21:27:05.892Z,101823.72
2022-10-18T21:29:35.261Z,101837.44
2022-10-18T21:32:06.682Z,101829.25
2022-10-18T21:34:39.725Z,101807.28
2022-10-18T21:37:09.432Z,101828.22
2022-10-18T21:39:37.691Z,101809.97
2022-10-18T21:42:09.527Z,101828.03
2022-10-18T21:44:40.406Z,101809.97
2022-10-18T21:47:11.860Z,101817.13
2022-10-18T21:49:45.043Z,101821.66
2022-10-18T21:52:20.148Z,101807.50
2022-10-18T21:54:51.370Z,101811.81
2022-10-18T21:57:21.355Z,101826.59
2022-10-18T21:59:51.684Z,101804.19
2022-10-18T22:02:19.816Z,101807.50
2022-10-18T22:04:50.082Z,101790.88
2022-10-18T22:07:20.731Z,101780.81
2022-10-18T22:09:51.963Z,101797.44
2022-10-18T22:12:21.438Z,101818.59
2022-10-18T22:14:50.008Z,101809.16
2022-10-18T22:17:20.982Z,101769.31
2022-10-18T22:19:54.090Z,101791.72
2022-10-18T22:22:24.863Z,101784.09
2022-10-18T22:25:01.005Z,101776.69
2022-10-18T22:27:32.504Z,101749.84
2022-10-18T22:30:01.776Z,101785.94
2022-10-18T22:32:31.266Z,101745.72
2022-10-18T22:34:59.246Z,101748.81
2022-10-18T22:37:30.664Z,101769.31
2022-10-18T22:39:58.933Z,101779.19
2022-10-18T22:42:32.120Z,101762.34
2022-10-18T22:45:01.222Z,101743.88
2022-10-18T22:47:29.162Z,101769.13
2022-10-18T22:50:00.252Z,101784.72
2022-10-18T22:52:28.296Z,101796.44
2022-10-18T22:54:56.908Z,101800.50
2022-10-18T22:57:24.997Z,101780.00
2022-10-18T22:59:54.621Z,101785.34
2022-10-18T23:02:25.971Z,101751.44
2022-10-18T23:04:53.979Z,101782.06
2022-10-18T23:07:25.140Z,101788.00
2022-10-18T23:09:56.243Z,101752.03
2022-10-18T23:12:26.760Z,101765.19
2022-10-18T23:14:56.633Z,101754.50
2022-10-18T23:17:36.130Z,101755.31
2022-10-18T23:20:06.915Z,101755.75
2022-10-18T23:22:35.884Z,101742.59
2022-10-18T23:25:04.688Z,101741.78
2022-10-18T23:27:35.410Z,101774.63
2022-10-18T23:30:06.285Z,101733.97
2022-10-18T23:32:35.123Z,101746.69
2022-10-18T23:35:03.784Z,101727.59
2022-10-18T23:37:35.568Z,101727.00
2022-10-18T23:40:07.959Z,101727.63
2022-10-18T23:42:39.456Z,101719.41
2022-10-18T23:45:10.932Z,101754.50
2022-10-18T23:47:45.319Z,101724.94
2022-10-18T23:50:16.599Z,101732.75
2022-10-18T23:52:48.127Z,101754.72
2022-10-18T23:55:19.522Z,101708.56
2022-10-18T23:57:47.690Z,101743.03
